createdAt,value
2018-08-11T00:00:16.898Z,2.13
2018-08-11T00:02:53.091Z,2.10
2018-08-11T00:05:28.167Z,2.00
2018-08-11T00:08:03.969Z,2.03
2018-08-11T00:10:38.890Z,2.23
2018-08-11T00:13:13.810Z,1.90
2018-08-11T00:15:48.822Z,2.00
2018-08-11T00:18:24.385Z,1.90
2018-08-11T00:20:59.289Z,1.70
2018-08-11T00:23:34.337Z,1.90
2018-08-11T00:26:09.181Z,1.90
2018-08-11T00:28:44.161Z,2.23
2018-08-11T00:31:19.024Z,2.00
2018-08-11T00:33:54.190Z,2.00
2018-08-11T00:36:29.062Z,2.10
2018-08-11T00:39:06.351Z,2.00
2018-08-11T00:41:41.813Z,2.30
2018-08-11T00:44:16.898Z,1.90
2018-08-11T00:46:51.806Z,1.67
2018-08-11T00:49:26.752Z,2.00
2018-08-11T00:52:01.775Z,2.10
2018-08-11T00:54:37.189Z,2.33
2018-08-11T00:57:11.958Z,1.90
2018-08-11T00:59:47.442Z,1.83
2018-08-11T01:02:22.379Z,1.90
2018-08-11T01:04:58.091Z,1.70
2018-08-11T01:07:33.716Z,1.80
2018-08-11T01:10:09.389Z,2.10
2018-08-11T01:12:45.166Z,1.90
2018-08-11T01:15:21.693Z,2.00
2018-08-11T01:17:56.788Z,1.93
2018-08-11T01:20:31.382Z,1.80
2018-08-11T01:23:06.182Z,1.87
2018-08-11T01:25:41.020Z,1.57
2018-08-11T01:28:16.354Z,1.80
2018-08-11T01:30:52.276Z,2.00
2018-08-11T01:33:27.514Z,1.77
2018-08-11T01:36:02.292Z,1.90
2018-08-11T01:38:37.068Z,1.60
2018-08-11T01:41:12.364Z,1.80
2018-08-11T01:43:47.272Z,1.80
2018-08-11T01:46:22.724Z,1.87
2018-08-11T01:48:57.818Z,1.97
2018-08-11T01:51:33.874Z,2.07
2018-08-11T01:54:09.709Z,1.90
2018-08-11T01:56:44.521Z,2.07
2018-08-11T01:59:19.437Z,1.90
2018-08-11T02:01:54.490Z,1.57
2018-08-11T02:04:29.896Z,1.80
2018-08-11T02:07:04.888Z,2.00
2018-08-11T02:09:40.110Z,1.90
2018-08-11T02:12:14.735Z,1.90
2018-08-11T02:14:49.609Z,1.80
2018-08-11T02:17:25.246Z,1.80
2018-08-11T02:19:59.886Z,2.00
2018-08-11T02:22:34.599Z,1.77
2018-08-11T02:25:10.218Z,2.00
2018-08-11T02:27:45.668Z,1.63
2018-08-11T02:30:20.769Z,1.80
2018-08-11T02:32:55.830Z,2.10
2018-08-11T02:35:30.966Z,1.80
2018-08-11T02:38:05.976Z,1.97
2018-08-11T02:40:40.920Z,2.33
2018-08-11T02:43:15.909Z,1.97
2018-08-11T02:45:50.761Z,1.73
2018-08-11T02:48:25.650Z,2.00
2018-08-11T02:51:01.365Z,2.10
2018-08-11T02:53:36.998Z,2.13
2018-08-11T02:56:11.910Z,2.20
2018-08-11T02:58:46.630Z,1.80
2018-08-11T03:01:23.100Z,1.80
2018-08-11T03:03:57.966Z,1.87
2018-08-11T03:06:33.373Z,1.90
2018-08-11T03:09:08.802Z,2.03
2018-08-11T03:11:43.444Z,2.00
2018-08-11T03:14:25.150Z,1.80
2018-08-11T03:16:59.919Z,1.77
2018-08-11T03:19:35.560Z,1.80
2018-08-11T03:22:10.363Z,1.73
2018-08-11T03:24:45.722Z,1.90
2018-08-11T03:27:21.178Z,1.77
2018-08-11T03:29:56.181Z,1.90
2018-08-11T03:32:31.144Z,2.00
2018-08-11T03:35:06.774Z,1.60
2018-08-11T03:37:41.491Z,2.00
2018-08-11T03:40:16.207Z,1.87
2018-08-11T03:42:51.029Z,1.57
2018-08-11T03:45:25.910Z,1.80
2018-08-11T03:48:01.000Z,1.73
2018-08-11T03:50:35.786Z,1.90
2018-08-11T03:53:10.970Z,1.73
2018-08-11T03:55:45.953Z,1.77
2018-08-11T03:58:20.671Z,1.70
2018-08-11T04:00:55.794Z,1.67
2018-08-11T04:03:31.110Z,1.90
2018-08-11T04:06:06.058Z,2.00
2018-08-11T04:08:40.758Z,2.00
2018-08-11T04:11:16.654Z,2.07
2018-08-11T04:13:51.974Z,1.70
2018-08-11T04:16:26.886Z,1.50
2018-08-11T04:19:01.802Z,1.70
2018-08-11T04:21:36.710Z,2.00
2018-08-11T04:24:11.656Z,2.00
2018-08-11T04:26:46.590Z,1.97
2018-08-11T04:29:21.934Z,1.90
2018-08-11T04:31:56.657Z,1.80
2018-08-11T04:34:32.292Z,1.83
2018-08-11T04:37:07.303Z,1.43
2018-08-11T04:39:42.120Z,1.87
2018-08-11T04:42:17.410Z,1.90
2018-08-11T04:44:52.310Z,1.80
2018-08-11T04:47:27.125Z,1.90
2018-08-11T04:50:08.721Z,1.87
2018-08-11T04:52:43.525Z,1.97
2018-08-11T04:55:18.444Z,2.10
2018-08-11T04:57:53.325Z,1.70
2018-08-11T05:00:28.799Z,2.00
2018-08-11T05:03:03.822Z,1.73
2018-08-11T05:05:39.164Z,1.43
2018-08-11T05:08:13.890Z,1.70
2018-08-11T05:10:48.886Z,1.50
2018-08-11T05:13:23.571Z,1.73
2018-08-11T05:15:58.989Z,1.77
2018-08-11T05:18:33.807Z,1.60
2018-08-11T05:21:08.928Z,1.77
2018-08-11T05:23:44.319Z,1.60
2018-08-11T05:26:19.497Z,1.73
2018-08-11T05:29:01.182Z,1.90
2018-08-11T05:31:35.894Z,1.57
2018-08-11T05:34:11.482Z,2.10
2018-08-11T05:36:46.505Z,1.80
2018-08-11T05:39:21.343Z,1.90
2018-08-11T05:41:56.170Z,1.80
2018-08-11T05:44:31.786Z,1.70
2018-08-11T05:47:06.857Z,1.90
2018-08-11T05:49:42.048Z,1.97
2018-08-11T05:52:17.165Z,1.70
2018-08-11T05:54:52.270Z,2.00
2018-08-11T05:57:27.137Z,2.03
2018-08-11T06:00:01.917Z,2.00
2018-08-11T06:02:36.785Z,1.60
2018-08-11T06:05:11.798Z,1.53
2018-08-11T06:07:46.674Z,1.47
2018-08-11T06:10:22.066Z,1.40
2018-08-11T06:12:57.559Z,1.37
2018-08-11T06:15:32.419Z,1.63
2018-08-11T06:18:07.854Z,1.57
2018-08-11T06:20:43.739Z,1.40
2018-08-11T06:23:18.673Z,1.43
2018-08-11T06:25:53.522Z,1.50
2018-08-11T06:28:29.023Z,1.50
2018-08-11T06:31:04.209Z,1.40
2018-08-11T06:33:39.313Z,1.60
2018-08-11T06:36:14.356Z,1.33
2018-08-11T06:38:49.213Z,1.33
2018-08-11T06:41:24.370Z,1.60
2018-08-11T06:43:59.389Z,1.60
2018-08-11T06:46:34.095Z,1.70
2018-08-11T06:49:09.177Z,1.40
2018-08-11T06:51:44.212Z,1.70
2018-08-11T06:54:19.797Z,1.50
2018-08-11T06:56:54.729Z,1.30
2018-08-11T06:59:29.673Z,1.67
2018-08-11T07:02:04.411Z,1.30
2018-08-11T07:04:39.338Z,1.50
2018-08-11T07:07:14.141Z,1.37
2018-08-11T07:09:49.072Z,1.60
2018-08-11T07:12:23.826Z,1.50
2018-08-11T07:15:05.507Z,1.60
2018-08-11T07:17:40.304Z,1.57
2018-08-11T07:20:15.277Z,1.43
2018-08-11T07:22:50.380Z,1.20
2018-08-11T07:25:25.098Z,1.60
2018-08-11T07:28:00.490Z,1.20
2018-08-11T07:30:35.281Z,1.20
2018-08-11T07:33:10.151Z,1.67
2018-08-11T07:35:45.094Z,1.20
2018-08-11T07:38:20.653Z,1.30
2018-08-11T07:40:55.485Z,1.50
2018-08-11T07:43:30.343Z,1.57
2018-08-11T07:46:05.293Z,1.60
2018-08-11T07:48:40.160Z,1.30
2018-08-11T07:51:15.312Z,1.30
2018-08-11T07:53:50.014Z,1.20
2018-08-11T07:56:24.915Z,1.33
2018-08-11T07:59:00.498Z,1.27
2018-08-11T08:01:35.255Z,1.20
2018-08-11T08:04:10.145Z,1.03
2018-08-11T08:06:44.776Z,1.10
2018-08-11T08:09:20.036Z,1.07
2018-08-11T08:11:55.177Z,1.20
2018-08-11T08:14:30.530Z,1.25
2018-08-11T08:17:05.582Z,1.05
2018-08-11T08:19:41.601Z,1.57
2018-08-11T08:22:16.780Z,1.22
2018-08-11T08:24:52.211Z,1.10
2018-08-11T08:27:28.061Z,1.00
2018-08-11T08:30:03.986Z,1.02
2018-08-11T08:32:39.529Z,1.10
2018-08-11T08:35:14.880Z,1.02
2018-08-11T08:37:51.410Z,1.17
2018-08-11T08:40:27.542Z,0.90
2018-08-11T08:43:03.041Z,1.00
2018-08-11T08:45:38.865Z,1.20
2018-08-11T08:48:13.962Z,1.22
2018-08-11T08:50:49.447Z,1.37
2018-08-11T08:53:25.087Z,1.25
2018-08-11T08:56:01.318Z,1.00
2018-08-11T08:58:36.636Z,1.00
2018-08-11T09:01:11.977Z,0.80
2018-08-11T09:03:47.270Z,1.17
2018-08-11T09:06:22.777Z,0.98
2018-08-11T09:08:58.273Z,1.20
2018-08-11T09:11:34.257Z,1.10
2018-08-11T09:14:10.028Z,1.10
2018-08-11T09:16:45.782Z,1.22
2018-08-11T09:19:21.202Z,1.17
2018-08-11T09:21:56.758Z,1.15
2018-08-11T09:24:32.469Z,1.35
2018-08-11T09:27:08.005Z,1.30
2018-08-11T09:29:43.307Z,1.12
2018-08-11T09:32:18.659Z,1.05
2018-08-11T09:34:54.002Z,1.32
2018-08-11T09:37:29.390Z,1.17
2018-08-11T09:40:05.196Z,0.95
2018-08-11T09:42:40.655Z,1.10
2018-08-11T09:45:16.061Z,0.98
2018-08-11T09:47:52.780Z,0.98
2018-08-11T09:50:28.134Z,1.17
2018-08-11T09:53:03.353Z,1.15
2018-08-11T09:55:38.621Z,1.10
2018-08-11T09:58:14.403Z,1.03
2018-08-11T10:00:53.634Z,1.00
2018-08-11T10:03:29.028Z,1.17
2018-08-11T10:06:04.434Z,1.10
2018-08-11T10:08:39.908Z,1.10
2018-08-11T10:11:15.222Z,1.10
2018-08-11T10:13:50.788Z,0.90
2018-08-11T10:16:26.189Z,1.22
2018-08-11T10:19:01.062Z,1.00
2018-08-11T10:21:37.012Z,1.02
2018-08-11T10:24:12.200Z,0.97
2018-08-11T10:26:47.395Z,0.90
2018-08-11T10:29:22.712Z,1.00
2018-08-11T10:31:57.616Z,0.87
2018-08-11T10:34:32.882Z,1.00
2018-08-11T10:37:08.303Z,1.10
2018-08-11T10:39:43.489Z,1.10
2018-08-11T10:42:18.747Z,1.00
2018-08-11T10:44:54.129Z,1.30
2018-08-11T10:47:29.585Z,1.00
2018-08-11T10:50:05.070Z,0.93
2018-08-11T10:52:40.683Z,1.10
2018-08-11T10:55:15.782Z,1.07
2018-08-11T10:57:50.995Z,1.10
2018-08-11T11:00:26.854Z,1.20
2018-08-11T11:03:01.842Z,1.03
2018-08-11T11:05:37.275Z,1.30
2018-08-11T11:08:12.900Z,1.10
2018-08-11T11:10:47.816Z,1.17
2018-08-11T11:13:22.838Z,1.07
2018-08-11T11:15:58.284Z,1.27
2018-08-11T11:18:33.250Z,1.00
2018-08-11T11:21:08.478Z,1.10
2018-08-11T11:23:43.654Z,1.00
2018-08-11T11:26:18.849Z,1.03
2018-08-11T11:28:54.149Z,0.90
2018-08-11T11:31:29.268Z,1.00
2018-08-11T11:34:05.094Z,1.03
2018-08-11T11:36:40.422Z,0.90
2018-08-11T11:39:15.484Z,1.00
2018-08-11T11:41:50.733Z,1.13
2018-08-11T11:44:26.101Z,0.90
2018-08-11T11:47:01.154Z,0.90
2018-08-11T11:49:36.184Z,1.10
2018-08-11T11:52:11.352Z,0.90
2018-08-11T11:54:46.648Z,0.83
2018-08-11T11:57:21.646Z,0.97
2018-08-11T11:59:56.655Z,1.00
2018-08-11T12:02:32.014Z,1.03
2018-08-11T12:05:07.165Z,1.10
2018-08-11T12:07:42.621Z,1.10
2018-08-11T12:10:18.070Z,0.90
2018-08-11T12:12:53.094Z,1.10
2018-08-11T12:15:28.204Z,1.10
2018-08-11T12:18:03.317Z,0.90
2018-08-11T12:20:40.558Z,1.10
2018-08-11T12:23:15.735Z,0.93
2018-08-11T12:25:50.724Z,1.00
2018-08-11T12:28:25.897Z,1.00
2018-08-11T12:31:00.893Z,0.80
2018-08-11T12:33:36.233Z,5.57
2018-08-11T12:36:11.356Z,1.30
2018-08-11T12:38:46.753Z,2.10
2018-08-11T12:41:21.934Z,1.70
2018-08-11T12:43:56.877Z,1.03
2018-08-11T12:46:32.649Z,1.20
2018-08-11T12:49:07.649Z,1.20
2018-08-11T12:51:42.654Z,0.90
2018-08-11T12:54:17.877Z,0.90
2018-08-11T12:56:53.068Z,1.17
2018-08-11T12:59:28.292Z,1.00
2018-08-11T13:02:03.758Z,0.87
2018-08-11T13:04:38.976Z,0.90
2018-08-11T13:07:13.933Z,0.77
2018-08-11T13:09:49.206Z,1.27
2018-08-11T13:12:24.441Z,0.90
2018-08-11T13:14:59.694Z,0.80
2018-08-11T13:17:35.448Z,1.30
2018-08-11T13:20:10.809Z,0.70
2018-08-11T13:22:45.820Z,1.00
2018-08-11T13:25:21.700Z,0.90
2018-08-11T13:27:57.062Z,1.00
2018-08-11T13:30:32.133Z,0.83
2018-08-11T13:33:07.470Z,0.80
2018-08-11T13:35:42.465Z,0.90
2018-08-11T13:38:17.498Z,1.10
2018-08-11T13:40:53.212Z,1.00
2018-08-11T13:43:28.229Z,0.80
2018-08-11T13:46:03.630Z,1.00
2018-08-11T13:48:38.526Z,0.90
2018-08-11T13:51:13.660Z,0.77
2018-08-11T13:53:49.586Z,1.00
2018-08-11T13:56:24.814Z,1.03
2018-08-11T13:59:00.292Z,1.00
2018-08-11T14:01:36.055Z,1.20
2018-08-11T14:04:11.378Z,0.90
2018-08-11T14:06:46.793Z,1.10
2018-08-11T14:09:21.921Z,1.00
2018-08-11T14:11:57.010Z,0.90
2018-08-11T14:14:31.935Z,0.90
2018-08-11T14:17:07.185Z,1.10
2018-08-11T14:19:42.332Z,1.03
2018-08-11T14:22:17.553Z,0.90
2018-08-11T14:24:52.697Z,1.07
2018-08-11T14:27:28.075Z,1.10
2018-08-11T14:30:03.135Z,0.87
2018-08-11T14:32:38.757Z,1.10
2018-08-11T14:35:14.147Z,1.00
2018-08-11T14:37:49.605Z,1.30
2018-08-11T14:40:25.263Z,1.20
2018-08-11T14:43:00.394Z,1.00
2018-08-11T14:45:35.425Z,1.03
2018-08-11T14:48:11.062Z,0.90
2018-08-11T14:50:46.393Z,0.80
2018-08-11T14:53:21.980Z,0.90
2018-08-11T14:55:57.298Z,1.07
2018-08-11T14:58:32.867Z,1.00
2018-08-11T15:01:09.274Z,1.27
2018-08-11T15:03:44.263Z,1.10
2018-08-11T15:06:19.437Z,0.90
2018-08-11T15:08:54.716Z,0.90
2018-08-11T15:11:29.848Z,1.00
2018-08-11T15:14:04.981Z,1.00
2018-08-11T15:16:40.323Z,1.07
2018-08-11T15:19:15.371Z,1.00
2018-08-11T15:21:50.397Z,1.10
2018-08-11T15:24:25.510Z,0.93
2018-08-11T15:27:00.823Z,1.10
2018-08-11T15:29:35.984Z,1.00
2018-08-11T15:32:11.125Z,0.87
2018-08-11T15:34:46.416Z,1.10
2018-08-11T15:37:21.483Z,1.30
2018-08-11T15:39:56.450Z,1.07
2018-08-11T15:42:31.583Z,1.30
2018-08-11T15:45:08.361Z,1.00
2018-08-11T15:47:44.051Z,1.00
2018-08-11T15:50:19.272Z,1.17
2018-08-11T15:52:54.526Z,1.20
2018-08-11T15:55:30.568Z,1.13
2018-08-11T15:58:05.925Z,1.30
2018-08-11T16:00:40.902Z,1.40
2018-08-11T16:03:16.508Z,1.30
2018-08-11T16:05:51.802Z,1.30
2018-08-11T16:08:26.849Z,1.13
2018-08-11T16:11:01.986Z,1.20
2018-08-11T16:13:39.474Z,1.30
2018-08-11T16:16:15.114Z,1.20
2018-08-11T16:18:50.201Z,1.30
2018-08-11T16:21:25.505Z,1.10
2018-08-11T16:24:00.619Z,1.30
2018-08-11T16:26:35.885Z,1.10
2018-08-11T16:29:11.011Z,1.23
2018-08-11T16:31:46.362Z,1.50
2018-08-11T16:34:21.626Z,1.27
2018-08-11T16:36:56.609Z,1.73
2018-08-11T16:39:31.872Z,2.83
2018-08-11T16:42:07.919Z,3.07
2018-08-11T16:44:42.884Z,4.37
2018-08-11T16:47:18.593Z,2.37
2018-08-11T16:49:54.232Z,1.40
2018-08-11T16:52:29.630Z,1.70
2018-08-11T16:55:04.861Z,2.27
2018-08-11T16:57:40.216Z,2.90
2018-08-11T17:00:15.559Z,2.73
2018-08-11T17:02:51.385Z,3.50
2018-08-11T17:05:26.594Z,1.90
2018-08-11T17:08:01.762Z,2.40
2018-08-11T17:10:36.865Z,2.10
2018-08-11T17:13:12.441Z,2.20
2018-08-11T17:15:47.758Z,1.93
2018-08-11T17:18:22.815Z,2.33
2018-08-11T17:20:58.380Z,2.20
2018-08-11T17:23:33.548Z,3.20
2018-08-11T17:26:08.535Z,4.97
2018-08-11T17:28:43.740Z,3.80
2018-08-11T17:31:19.094Z,4.58
2018-08-11T17:33:55.044Z,1.42
2018-08-11T17:36:31.084Z,1.10
2018-08-11T17:39:09.145Z,1.17
2018-08-11T17:41:44.965Z,1.15
2018-08-11T17:44:20.392Z,1.30
2018-08-11T17:46:55.961Z,1.20
2018-08-11T17:49:31.477Z,1.57
2018-08-11T17:52:07.311Z,1.47
2018-08-11T17:54:42.864Z,1.20
2018-08-11T17:57:25.290Z,1.42
2018-08-11T18:00:01.134Z,1.47
2018-08-11T18:02:37.686Z,1.45
2018-08-11T18:05:12.989Z,1.15
2018-08-11T18:07:48.719Z,1.62
2018-08-11T18:10:23.869Z,1.32
2018-08-11T18:12:59.126Z,1.20
2018-08-11T18:15:34.769Z,1.17
2018-08-11T18:18:10.090Z,1.25
2018-08-11T18:20:45.576Z,1.50
2018-08-11T18:23:20.996Z,1.40
2018-08-11T18:25:59.460Z,1.27
2018-08-11T18:28:34.654Z,1.92
2018-08-11T18:31:09.937Z,1.27
2018-08-11T18:33:45.949Z,1.87
2018-08-11T18:36:21.697Z,1.55
2018-08-11T18:38:57.229Z,1.47
2018-08-11T18:41:32.525Z,1.50
2018-08-11T18:44:08.119Z,1.22
2018-08-11T18:46:43.536Z,1.25
2018-08-11T18:49:19.181Z,1.30
2018-08-11T18:51:55.671Z,1.55
2018-08-11T18:54:31.626Z,1.40
2018-08-11T18:57:07.624Z,1.30
2018-08-11T18:59:43.213Z,1.35
2018-08-11T19:02:19.073Z,1.65
2018-08-11T19:04:54.922Z,1.40
2018-08-11T19:07:31.137Z,1.57
2018-08-11T19:10:07.580Z,1.40
2018-08-11T19:12:42.762Z,1.60
2018-08-11T19:15:18.115Z,1.50
2018-08-11T19:17:53.836Z,1.77
2018-08-11T19:20:29.689Z,1.60
2018-08-11T19:23:05.338Z,1.90
2018-08-11T19:25:40.829Z,1.90
2018-08-11T19:28:16.428Z,2.10
2018-08-11T19:30:52.288Z,2.00
2018-08-11T19:33:28.386Z,1.90
2018-08-11T19:36:03.925Z,1.50
2018-08-11T19:38:39.493Z,1.90
2018-08-11T19:41:14.855Z,2.00
2018-08-11T19:43:50.345Z,1.90
2018-08-11T19:46:26.031Z,1.90
2018-08-11T19:49:01.660Z,1.72
2018-08-11T19:51:37.046Z,2.02
2018-08-11T19:54:13.097Z,2.43
2018-08-11T19:56:48.090Z,2.70
2018-08-11T19:59:23.369Z,2.60
2018-08-11T20:01:58.331Z,2.47
2018-08-11T20:04:34.214Z,2.98
2018-08-11T20:07:09.500Z,2.43
2018-08-11T20:09:44.344Z,2.90
2018-08-11T20:12:19.490Z,3.50
2018-08-11T20:14:54.754Z,3.93
2018-08-11T20:17:30.326Z,3.20
2018-08-11T20:20:06.755Z,3.10
2018-08-11T20:22:42.288Z,3.10
2018-08-11T20:25:17.431Z,3.17
2018-08-11T20:27:52.622Z,3.00
2018-08-11T20:30:27.691Z,2.40
2018-08-11T20:33:02.747Z,2.67
2018-08-11T20:35:37.698Z,2.50
2018-08-11T20:38:13.083Z,2.77
2018-08-11T20:40:48.309Z,2.77
2018-08-11T20:43:23.516Z,2.20
2018-08-11T20:45:58.610Z,1.80
2018-08-11T20:48:33.720Z,2.30
2018-08-11T20:51:08.574Z,2.33
2018-08-11T20:53:50.358Z,2.50
2018-08-11T20:56:26.052Z,2.55
2018-08-11T20:59:01.484Z,2.80
2018-08-11T21:01:36.230Z,2.47
2018-08-11T21:04:11.766Z,2.67
2018-08-11T21:06:46.452Z,2.30
2018-08-11T21:09:21.972Z,2.30
2018-08-11T21:11:56.828Z,2.93
2018-08-11T21:14:31.754Z,2.80
2018-08-11T21:17:07.170Z,2.70
2018-08-11T21:19:42.189Z,2.70
2018-08-11T21:22:17.549Z,2.60
2018-08-11T21:24:52.537Z,3.30
2018-08-11T21:27:28.394Z,2.67
2018-08-11T21:30:04.278Z,2.90
2018-08-11T21:32:39.138Z,3.00
2018-08-11T21:35:14.140Z,3.43
2018-08-11T21:37:49.829Z,3.10
2018-08-11T21:40:24.787Z,3.27
2018-08-11T21:42:59.933Z,3.37
2018-08-11T21:45:35.361Z,2.90
2018-08-11T21:48:11.157Z,3.20
2018-08-11T21:50:46.477Z,2.70
2018-08-11T21:53:21.854Z,3.00
2018-08-11T21:55:56.641Z,2.70
2018-08-11T21:58:31.478Z,3.07
2018-08-11T22:01:12.717Z,3.00
2018-08-11T22:03:48.537Z,3.00
2018-08-11T22:06:24.201Z,3.13
2018-08-11T22:08:58.926Z,2.83
2018-08-11T22:11:33.602Z,3.13
2018-08-11T22:14:09.525Z,2.80
2018-08-11T22:16:44.128Z,3.07
2018-08-11T22:19:19.480Z,3.07
2018-08-11T22:21:54.505Z,2.83
2018-08-11T22:24:29.377Z,2.83
2018-08-11T22:27:04.443Z,3.17
2018-08-11T22:29:39.951Z,3.17
2018-08-11T22:32:14.865Z,2.97
2018-08-11T22:34:50.121Z,3.10
2018-08-11T22:37:25.110Z,3.40
2018-08-11T22:39:59.901Z,3.20
2018-08-11T22:42:36.162Z,3.77
2018-08-11T22:45:12.698Z,3.40
2018-08-11T22:47:47.302Z,3.50
2018-08-11T22:50:22.881Z,2.77
2018-08-11T22:52:58.077Z,3.33
2018-08-11T22:55:33.206Z,3.30
2018-08-11T22:58:08.755Z,2.87
2018-08-11T23:00:43.721Z,3.40
2018-08-11T23:03:18.668Z,3.10
2018-08-11T23:05:53.749Z,3.17
2018-08-11T23:08:28.609Z,3.10
2018-08-11T23:11:03.473Z,3.07
2018-08-11T23:13:38.757Z,2.67
2018-08-11T23:16:13.676Z,3.33
2018-08-11T23:18:48.703Z,3.00
2018-08-11T23:21:24.325Z,3.07
2018-08-11T23:23:58.973Z,2.93
2018-08-11T23:26:34.300Z,3.10
2018-08-11T23:29:09.137Z,3.03
2018-08-11T23:31:44.213Z,3.27
2018-08-11T23:34:18.977Z,2.97
2018-08-11T23:36:54.804Z,3.00
2018-08-11T23:39:29.927Z,2.77
2018-08-11T23:42:05.771Z,2.40
2018-08-11T23:44:40.883Z,3.30
2018-08-11T23:47:15.984Z,3.20
2018-08-11T23:49:50.857Z,3.30
2018-08-11T23:52:25.767Z,2.93
2018-08-11T23:55:00.642Z,3.10
2018-08-11T23:57:36.882Z,3.03
